»·PEaware :: ASA1904 KSFO-KLAS

ASA1904 :: KSFO-KLAS

FLIGHT INFORMATION

Flight Status: Arrived
Operator:
Alaska Airlines
More flights by this operator :: More flights under this callsign
Pilot: Ryan W. (19155)
Aircraft: AIRBUS A320
(A320)
More flights by this aircraft type
Origin: KSFO San Francisco Intl
United States
Destination: KLAS McCarran Intl
United States
More flights between these airports :: More routes between these airports
Route: +SSTIK3 NTELL Q162 ESSAA BTY SUNST4
File this flight plan on PilotEdge
Remarks:
Altitude:
(Current/Filed)
37,000ft
Speed:
(Current/Filed)
447kts
Departed: 11-May-18 12:33 PM
Arrived: 11-May-18 01:40 PM
Distance/Time
Traveled:
359nm/1:07
Distance/Time
To Go:
Arrived

Flight Plot

Page will automatically refresh every two minutes.

Flight plan parsing failed; only flown route is shown


Map Options




Map Legend


Flown Route
Filed Route
Departure Airport
Arrival Airport
Navaid (VOR, NDB)
Fix

Horizontal Profiles

Position Reports

Time Latitude Longitude Heading Altitude Ground
Speed
11-May-18 12:16 37.617857 -122.380642 257 22ft 0kts
11-May-18 12:17 37.617857 -122.380642 257 22ft 0kts
11-May-18 12:18 37.617857 -122.380642 257 22ft 0kts
11-May-18 12:19 37.617857 -122.380642 257 22ft 0kts
11-May-18 12:20 37.617857 -122.380642 257 22ft 0kts
11-May-18 12:21 37.617857 -122.380642 257 22ft 0kts
11-May-18 12:22 37.617857 -122.380642 257 22ft 0kts
11-May-18 12:23 37.617857 -122.380642 257 22ft 0kts
11-May-18 12:24 37.617857 -122.380642 257 22ft 0kts
11-May-18 12:25 37.617990 -122.380058 240 22ft 2kts
11-May-18 12:26 37.618361 -122.379811 173 22ft 2kts
11-May-18 12:27 37.618542 -122.379901 148 22ft 0kts
11-May-18 12:28 37.618542 -122.379901 148 22ft 0kts
11-May-18 12:29 37.616665 -122.379633 201 22ft 14kts
11-May-18 12:30 37.612828 -122.382155 207 22ft 16kts
11-May-18 12:31 37.609399 -122.384025 126 22ft 5kts
11-May-18 12:32 37.608730 -122.382413 49 22ft 7kts
11-May-18 12:33 37.633050 -122.366556 12 1059ft 158kts
11-May-18 12:34 37.683274 -122.361608 0 3721ft 211kts
11-May-18 12:35 37.717597 -122.418604 253 6348ft 278kts
11-May-18 12:36 37.650872 -122.460053 187 9545ft 308kts
11-May-18 12:37 37.558682 -122.468282 187 11544ft 366kts
11-May-18 12:38 37.464217 -122.432107 126 14132ft 394kts
11-May-18 12:39 37.406423 -122.314551 102 16360ft 408kts
11-May-18 12:40 37.379545 -122.177396 101 18355ft 425kts
11-May-18 12:41 37.350533 -122.031642 101 20296ft 439kts
11-May-18 12:42 37.320386 -121.881609 101 22012ft 453kts
11-May-18 12:43 37.289068 -121.726885 101 23590ft 466kts
11-May-18 12:44 37.256667 -121.567957 101 25108ft 477kts
11-May-18 12:45 37.223286 -121.405432 101 26544ft 486kts
11-May-18 12:46 37.189512 -121.242248 101 27806ft 495kts
11-May-18 12:47 37.154758 -121.075568 101 28966ft 503kts
11-May-18 12:48 37.119198 -120.906332 101 30044ft 509kts
11-May-18 12:49 37.083074 -120.735745 100 31391ft 506kts
11-May-18 12:50 37.047102 -120.567122 100 32725ft 502kts
11-May-18 12:51 37.011245 -120.400355 100 33952ft 498kts
11-May-18 12:52 36.976307 -120.239038 100 34998ft 496kts
11-May-18 12:53 36.940232 -120.073683 100 35962ft 494kts
11-May-18 12:54 36.909807 -119.908984 84 36826ft 481kts
11-May-18 12:55 36.943790 -119.754789 60 36938ft 458kts
11-May-18 12:56 36.991791 -119.608264 60 36939ft 458kts
11-May-18 12:57 37.039613 -119.461088 60 36937ft 458kts
11-May-18 12:58 37.086808 -119.315072 61 36992ft 457kts
11-May-18 12:59 37.134163 -119.167892 61 36987ft 457kts
11-May-18 13:00 37.181036 -119.021413 61 36994ft 457kts
11-May-18 13:01 37.227811 -118.874442 61 36998ft 457kts
11-May-18 13:02 37.273510 -118.726907 67 36853ft 463kts
11-May-18 13:03 37.291078 -118.564470 76 36813ft 470kts
11-May-18 13:04 37.305891 -118.402168 76 36806ft 470kts
11-May-18 13:05 37.320101 -118.243973 77 36794ft 469kts
11-May-18 13:06 37.334473 -118.081441 77 36798ft 469kts
11-May-18 13:07 37.348492 -117.919537 78 36799ft 470kts
11-May-18 13:08 37.338446 -117.753614 90 36811ft 480kts
11-May-18 13:09 37.323557 -117.587357 92 36238ft 484kts
11-May-18 13:10 37.308342 -117.420320 92 34309ft 482kts
11-May-18 13:11 37.269716 -117.263028 126 32525ft 497kts
11-May-18 13:12 37.185238 -117.124663 127 30824ft 501kts
11-May-18 13:13 37.100634 -116.986186 127 29809ft 503kts
11-May-18 13:14 36.993820 -116.881290 153 27829ft 486kts
11-May-18 13:15 36.877641 -116.800863 153 25400ft 478kts
11-May-18 13:16 36.772096 -116.707014 133 23776ft 454kts
11-May-18 13:17 36.690660 -116.590719 132 22446ft 462kts
11-May-18 13:18 36.607962 -116.473172 133 20799ft 438kts
11-May-18 13:19 36.530256 -116.363075 132 19740ft 417kts
11-May-18 13:20 36.454428 -116.256104 133 19188ft 412kts
11-May-18 13:21 36.379105 -116.150118 133 18094ft 406kts
11-May-18 13:22 36.305213 -116.046461 133 17017ft 398kts
11-May-18 13:23 36.233326 -115.945900 133 16046ft 377kts
11-May-18 13:24 36.182066 -115.842710 111 16039ft 357kts
11-May-18 13:25 36.146242 -115.730978 111 16012ft 358kts
11-May-18 13:26 36.112987 -115.627832 111 16015ft 358kts
11-May-18 13:27 36.079131 -115.523132 111 14950ft 351kts
11-May-18 13:28 36.043783 -115.414185 112 12437ft 338kts
11-May-18 13:29 36.024070 -115.308971 93 10343ft 302kts
11-May-18 13:30 36.018796 -115.211504 97 9015ft 287kts
11-May-18 13:31 36.013210 -115.115985 98 8505ft 283kts
11-May-18 13:32 36.007585 -115.035100 97 7929ft 264kts
11-May-18 13:33 36.004430 -114.954123 95 6951ft 262kts
11-May-18 13:34 36.018270 -114.872589 27 6349ft 257kts
11-May-18 13:35 36.071496 -114.908116 276 5548ft 241kts
11-May-18 13:36 36.073532 -114.987343 266 4631ft 210kts
11-May-18 13:37 36.073897 -115.050890 264 3501ft 155kts
11-May-18 13:38 36.073689 -115.097839 263 2694ft 132kts
11-May-18 13:39 36.073632 -115.140965 270 2190ft 84kts
11-May-18 13:40 36.074762 -115.150612 301 2190ft 6kts
11-May-18 13:41 36.076879 -115.152258 336 2190ft 14kts
11-May-18 13:42 36.078730 -115.150414 91 2190ft 11kts
11-May-18 13:43 36.078434 -115.145928 94 2190ft 14kts
11-May-18 13:44 36.079154 -115.142419 359 2190ft 14kts
11-May-18 13:45 36.082871 -115.142342 22 2190ft 11kts
11-May-18 13:46 36.085106 -115.140557 0 2190ft 6kts
11-May-18 13:47 36.085333 -115.140556 0 2190ft 0kts
11-May-18 13:48 36.085333 -115.140556 0 2190ft 0kts

Navigation Log

Ident Type
Flight plan parsing failed, navigation log unavailable